Sparta, NC (28675)

4:42 PM EST on January 28, 2015 (GMT -0500)
stone ridge | Change Station
CLOSE
Current Station
Personal Weather Station
Location: Sparta, NC
Elevation: 3009 ft
Nearby Weather Stations

Elev 3009 ft 36.50 °N, 81.14 °W | Updated 3 seconds ago

Clear
Clear
36.9 °F
Feels Like 37 °F
N
2.0
Wind Variable Wind from NW
Gusts 3.0 mph

Today
High -- | Low -- °F
--% Chance of Precip.
Yesterday
High -- | Low -- °F
Precip. -- in
7:29 AM 5:45 PM
Waxing Gibbous, 68% visible
Pressure 30.16 in
Visibility 10.0 miles
Clouds Clear
Windchill 37 °F
Dew Point 15 °F
Humidity 41%
Rainfall 0.00 in
Snow Depth Not available.
UV 1 out of 12
Pollen .40 out of 12
Air Quality Not available.
Flu Activity Not available.
METAR KGEV 282135Z AUTO 28007KT 10SM CLR 04/M12 A3016 RMK AO2 T00381118

More Conditions Fewer Conditions

Pressure 30.16 in
Visibility 10.0 miles
Clouds Clear
Windchill 37 °F
Dew Point 15 °F
Humidity 41%
Rainfall 0.00 in
Snow Depth Not available.
UV 1 out of 12
Pollen .40 out of 12
Air Quality Not available.
Flu Activity Not available.
METAR KGEV 282135Z AUTO 28007KT 10SM CLR 04/M12 A3016 RMK AO2 T00381118

More Conditions Fewer Conditions

10-Day Weather Forecast

Almanac

Astronomy

Jan. 28, 2015 Rise Set
Actual Time
Civil Twilight
Nautical Twilight
Astronomical Twilight
Moon
Length of Visible Light
Length of Day
Tomorrow will be .
, % of the Moon is Illuminated

Today's Extremes

State Highs State Lows

Community

WunderPhotos

Upload Photos

1,791,271 photos uploaded!

WunderBlogs® & News

Nearby

Air Quality

  Air Quality AQ Index Pollutant
Not available.

Snow Depth

Station Depth Elevation

Earthquake Activity

City Distance Mag. Time & Date
Minimum magnitude displayed is 2.5.

Coastal Water Temperatures

Place Temperature

Nearby Weather Stations